Time;durP1;ratioP1;P1;durP2;ratioP2;P2;SDS_P1;SDS_P2;PMS_P1;PMS_P2;Temp;Humidity;BMP_temperature;BMP_pressure;BME280_temperature;BME280_humidity;BME280_pressure;Samples;Min_cycle;Max_cycle;Signal;HPM_P1;HPM_P2
2022/02/06 00:02:16;;;;;;;0.93;0.73;;;17.20;63.70;;;;;;10283546;28;20473;-67
2022/02/06 00:07:39;;;;;;;0.90;0.57;;;17.20;63.80;;;;;;10285476;28;20587;-67
2022/02/06 00:13:02;;;;;;;1.27;0.57;;;17.20;63.80;;;;;;10287470;28;20404;-67
2022/02/06 00:18:24;;;;;;;0.77;0.53;;;17.30;63.90;;;;;;10287162;28;20686;-67
2022/02/06 00:23:50;;;;;;;1.70;0.70;;;17.20;63.80;;;;;;10286979;28;20572;-68
2022/02/06 00:29:21;;;;;;;1.07;0.67;;;17.20;63.80;;;;;;10288334;28;20283;-67
2022/02/06 00:35:12;;;;;;;0.50;0.50;;;17.20;63.80;;;;;;10288630;28;20196;-67
2022/02/06 00:40:45;;;;;;;0.80;0.53;;;17.30;63.90;;;;;;10297072;28;20230;-67
2022/02/06 00:46:13;;;;;;;1.23;0.50;;;17.20;63.90;;;;;;10294947;28;20283;-67
2022/02/06 00:51:41;;;;;;;1.13;0.43;;;17.20;63.90;;;;;;10293330;28;20219;-67
2022/02/06 00:57:04;;;;;;;1.20;0.50;;;17.20;63.90;;;;;;10293365;28;20298;-67
2022/02/06 01:02:27;;;;;;;1.57;0.60;;;17.20;63.90;;;;;;10291966;28;20305;-67
2022/02/06 01:07:50;;;;;;;1.40;0.73;;;17.20;63.90;;;;;;10295232;28;20192;-67
2022/02/06 01:13:19;;;;;;;0.80;0.50;;;17.20;63.90;;;;;;10292316;28;20216;-67
2022/02/06 01:18:50;;;;;;;0.70;0.50;;;17.20;63.90;;;;;;10292711;28;20224;-67
2022/02/06 01:24:16;;;;;;;1.10;0.70;;;17.30;64.00;;;;;;10293589;28;20191;-67
2022/02/06 01:29:46;;;;;;;0.77;0.40;;;17.20;63.90;;;;;;10292444;28;20219;-68
2022/02/06 01:35:13;;;;;;;0.83;0.53;;;17.20;63.90;;;;;;10291710;28;20582;-67
2022/02/06 01:40:42;;;;;;;0.87;0.50;;;17.20;63.90;;;;;;10292217;28;20306;-67
2022/02/06 01:46:24;;;;;;;1.17;0.70;;;17.20;63.90;;;;;;10292449;28;20568;-67
2022/02/06 02:00:38;;;;;;;0.87;0.57;;;17.20;63.90;;;;;;10291103;28;20274;-67
2022/02/06 02:03:17;;;;;;;0.60;0.47;;;17.20;63.90;;;;;;10290338;28;20215;-67
2022/02/06 02:14:40;;;;;;;1.17;0.50;;;17.20;64.00;;;;;;10274378;28;20646;-67
2022/02/06 02:20:21;;;;;;;0.80;0.53;;;17.20;64.00;;;;;;10290562;28;20207;-67
2022/02/06 02:26:20;;;;;;;0.77;0.40;;;17.20;64.00;;;;;;10291675;28;20204;-68
2022/02/06 02:32:03;;;;;;;0.83;0.50;;;17.20;64.00;;;;;;10289045;28;20413;-67
2022/02/06 02:43:32;;;;;;;1.00;0.50;;;17.10;64.00;;;;;;10288072;28;20200;-68
2022/02/06 02:48:51;;;;;;;0.80;0.60;;;17.20;64.00;;;;;;10289660;28;20207;-67
2022/02/06 02:54:21;;;;;;;1.03;0.40;;;17.20;64.00;;;;;;10290380;28;20196;-67
2022/02/06 02:59:56;;;;;;;0.90;0.50;;;17.20;64.60;;;;;;10285334;28;20224;-67
2022/02/06 03:05:19;;;;;;;1.43;0.40;;;17.20;64.00;;;;;;10290419;28;20184;-67
2022/02/06 03:10:42;;;;;;;0.33;0.33;;;17.20;64.00;;;;;;10289038;28;20216;-67
2022/02/06 03:16:17;;;;;;;0.53;0.43;;;17.10;64.00;;;;;;10288861;28;20266;-67
2022/02/06 03:21:40;;;;;;;1.30;0.47;;;17.20;64.10;;;;;;10287781;28;20366;-67
2022/02/06 03:27:02;;;;;;;0.50;0.40;;;17.20;64.10;;;;;;10288490;28;20192;-67
2022/02/06 03:32:25;;;;;;;0.60;0.30;;;17.20;64.10;;;;;;10288255;28;20289;-67
2022/02/06 03:37:48;;;;;;;0.70;0.50;;;17.20;64.00;;;;;;10285610;28;20216;-68
2022/02/06 03:43:15;;;;;;;0.63;0.40;;;17.20;64.10;;;;;;10287324;28;20226;-67
2022/02/06 03:48:47;;;;;;;0.70;0.43;;;17.10;64.00;;;;;;10288822;28;20607;-67
2022/02/06 03:54:10;;;;;;;0.63;0.40;;;17.20;64.10;;;;;;10287981;28;20236;-67
2022/02/06 03:59:34;;;;;;;0.20;0.20;;;17.20;64.10;;;;;;10287017;28;20234;-67
2022/02/06 04:04:58;;;;;;;0.83;0.50;;;17.20;64.10;;;;;;10284651;28;20326;-67
2022/02/06 04:10:20;;;;;;;0.40;0.20;;;17.10;64.00;;;;;;10285092;28;20212;-67
2022/02/06 04:15:44;;;;;;;1.17;0.40;;;17.10;64.10;;;;;;10286423;28;20216;-67
2022/02/06 04:21:07;;;;;;;0.30;0.30;;;17.20;64.10;;;;;;10288037;28;20585;-67
2022/02/06 04:26:29;;;;;;;0.20;0.20;;;17.10;64.10;;;;;;10287581;28;20207;-67
2022/02/06 04:31:51;;;;;;;0.47;0.40;;;17.10;64.00;;;;;;10286985;28;20212;-67
2022/02/06 04:37:22;;;;;;;0.50;0.40;;;17.20;64.10;;;;;;10285233;28;20234;-67
2022/02/06 05:16:33;;;;;;;0.83;0.30;;;17.10;64.20;;;;;;10323469;28;20710;-69
2022/02/06 05:22:24;;;;;;;0.50;0.20;;;17.10;64.40;;;;;;10325572;28;20191;-69
2022/02/06 05:28:04;;;;;;;0.87;0.43;;;17.10;64.20;;;;;;10330985;28;20203;-69
2022/02/06 05:33:27;;;;;;;0.70;0.40;;;17.10;64.20;;;;;;10331252;28;20200;-69
2022/02/06 05:38:49;;;;;;;0.37;0.37;;;17.20;64.30;;;;;;10327677;28;20222;-69
2022/02/06 05:44:12;;;;;;;0.60;0.47;;;17.10;64.20;;;;;;10330328;28;20211;-69
2022/02/06 05:49:35;;;;;;;0.50;0.40;;;17.10;64.20;;;;;;10331847;28;20621;-69
2022/02/06 05:54:57;;;;;;;0.40;0.40;;;17.10;64.20;;;;;;10331817;28;20226;-69
2022/02/06 06:00:19;;;;;;;0.63;0.40;;;17.20;64.30;;;;;;10331576;28;20223;-69
2022/02/06 06:05:43;;;;;;;0.77;0.40;;;17.10;64.30;;;;;;10330702;28;20221;-69
2022/02/06 06:11:05;;;;;;;0.33;0.23;;;17.10;64.30;;;;;;10327475;28;20207;-69
2022/02/06 06:16:27;;;;;;;1.10;0.53;;;17.10;64.30;;;;;;10329593;28;20230;-69
2022/02/06 06:21:54;;;;;;;0.30;0.30;;;17.10;64.30;;;;;;10331660;28;20663;-69
2022/02/06 06:27:16;;;;;;;0.20;0.20;;;17.20;64.30;;;;;;10330647;28;20614;-69
2022/02/06 06:32:39;;;;;;;0.30;0.30;;;17.20;64.30;;;;;;10330453;28;20670;-69
2022/02/06 06:38:03;;;;;;;0.30;0.23;;;17.20;64.30;;;;;;10326903;28;20231;-69
2022/02/06 06:43:25;;;;;;;0.50;0.40;;;17.20;64.30;;;;;;10329949;28;20606;-69
2022/02/06 06:48:47;;;;;;;0.43;0.30;;;17.20;64.30;;;;;;10328016;28;20214;-69
2022/02/06 06:54:15;;;;;;;0.83;0.40;;;17.20;64.30;;;;;;10331105;28;20211;-69
2022/02/06 07:00:07;;;;;;;0.50;0.23;;;17.20;64.30;;;;;;10330132;28;20211;-69
2022/02/06 07:05:28;;;;;;;0.63;0.23;;;17.20;64.40;;;;;;10332496;28;20219;-69
2022/02/06 07:10:52;;;;;;;0.43;0.37;;;17.20;64.40;;;;;;10330169;28;20187;-69
2022/02/06 07:16:14;;;;;;;0.30;0.30;;;17.20;64.30;;;;;;10330161;28;20226;-69
2022/02/06 07:21:39;;;;;;;0.20;0.20;;;17.20;64.40;;;;;;10328894;28;20583;-69
2022/02/06 07:27:05;;;;;;;0.47;0.40;;;17.20;64.40;;;;;;10328775;28;20222;-69
2022/02/06 07:32:28;;;;;;;0.40;0.30;;;17.20;64.40;;;;;;10329321;28;20210;-68
2022/02/06 07:37:55;;;;;;;0.50;0.40;;;17.20;64.40;;;;;;10325517;28;20227;-69
2022/02/06 07:43:18;;;;;;;0.23;0.20;;;17.20;64.40;;;;;;10329045;28;20207;-69
2022/02/06 07:48:40;;;;;;;0.73;0.33;;;17.20;64.40;;;;;;10327283;28;20227;-69
2022/02/06 07:54:03;;;;;;;0.20;0.10;;;17.20;64.40;;;;;;10327765;28;20200;-69
2022/02/06 07:59:26;;;;;;;0.97;0.30;;;17.20;64.50;;;;;;10327603;28;20207;-69
2022/02/06 08:04:49;;;;;;;0.63;0.33;;;17.20;64.40;;;;;;10328249;28;20690;-69
2022/02/06 08:10:12;;;;;;;0.83;0.40;;;17.20;64.50;;;;;;10328690;28;20280;-69
2022/02/06 08:15:35;;;;;;;0.33;0.30;;;17.20;64.50;;;;;;10328132;28;20568;-69
2022/02/06 08:20:58;;;;;;;0.77;0.40;;;17.20;64.50;;;;;;10307130;28;20202;-68
2022/02/06 08:26:20;;;;;;;0.70;0.40;;;17.20;64.50;;;;;;10327714;28;20218;-69
2022/02/06 08:31:43;;;;;;;0.30;0.30;;;17.20;64.50;;;;;;10327659;28;20813;-69
2022/02/06 08:37:06;;;;;;;0.73;0.40;;;17.20;64.60;;;;;;10315117;28;20230;-69
2022/02/06 08:42:28;;;;;;;0.30;0.30;;;17.20;64.60;;;;;;10312849;28;20207;-69
2022/02/06 08:47:51;;;;;;;0.30;0.20;;;17.20;64.70;;;;;;10288413;28;20210;-69
2022/02/06 08:53:13;;;;;;;0.27;0.20;;;17.20;64.70;;;;;;10324284;28;20203;-68
2022/02/06 08:58:36;;;;;;;0.47;0.30;;;17.20;64.70;;;;;;10328236;28;20225;-68
2022/02/06 09:03:59;;;;;;;0.43;0.33;;;17.20;64.70;;;;;;10316474;28;20298;-68
2022/02/06 09:09:21;;;;;;;0.20;0.20;;;17.20;64.70;;;;;;10335031;28;20195;-69
2022/02/06 09:14:46;;;;;;;1.07;0.50;;;17.20;64.70;;;;;;10335340;28;20222;-69
2022/02/06 09:20:11;;;;;;;0.70;0.37;;;17.20;64.70;;;;;;10335121;28;20219;-69
2022/02/06 09:25:33;;;;;;;0.60;0.40;;;17.20;64.70;;;;;;10334231;28;20241;-69
2022/02/06 09:30:56;;;;;;;0.40;0.40;;;17.20;64.70;;;;;;10333975;28;20194;-69
2022/02/06 09:36:19;;;;;;;0.27;0.23;;;17.20;64.70;;;;;;10333735;28;20234;-68
2022/02/06 09:41:44;;;;;;;1.17;0.53;;;17.20;64.70;;;;;;10334120;28;20206;-69
2022/02/06 09:47:06;;;;;;;0.57;0.40;;;17.20;64.70;;;;;;10332495;28;20861;-69
2022/02/06 09:52:30;;;;;;;0.60;0.40;;;17.30;64.80;;;;;;10333614;28;20226;-69
2022/02/06 09:57:55;;;;;;;0.30;0.30;;;17.20;64.80;;;;;;10333036;28;20228;-69
2022/02/06 10:03:20;;;;;;;0.80;0.60;;;17.20;64.80;;;;;;10332997;28;20670;-68
2022/02/06 10:08:46;;;;;;;0.40;0.30;;;17.20;64.80;;;;;;10332418;28;20689;-68
2022/02/06 10:14:08;;;;;;;0.90;0.50;;;17.20;64.80;;;;;;10332165;28;20683;-68
2022/02/06 10:19:31;;;;;;;0.80;0.40;;;17.20;64.80;;;;;;10332269;28;20239;-69
2022/02/06 10:25:04;;;;;;;0.50;0.20;;;17.20;64.80;;;;;;10333089;28;20226;-69
2022/02/06 10:30:42;;;;;;;0.73;0.43;;;17.20;64.80;;;;;;10332793;28;20183;-69
2022/02/06 10:36:05;;;;;;;1.23;0.30;;;17.20;64.70;;;;;;10328868;28;20219;-69
2022/02/06 10:41:29;;;;;;;0.83;0.37;;;17.20;64.90;;;;;;10331232;28;20195;-67
2022/02/06 10:46:58;;;;;;;1.00;0.50;;;17.20;64.80;;;;;;10330472;28;20207;-69
2022/02/06 10:52:27;;;;;;;0.27;0.23;;;17.20;64.90;;;;;;10331131;28;20206;-68
2022/02/06 10:57:58;;;;;;;0.27;0.20;;;17.20;64.80;;;;;;10357984;23;20231;-66
2022/02/06 11:03:25;;;;;;;0.40;0.30;;;17.20;64.80;;;;;;10327132;28;20203;-66
2022/02/06 11:08:47;;;;;;;0.50;0.30;;;17.20;65.50;;;;;;10329485;28;20211;-67
2022/02/06 11:14:14;;;;;;;1.33;0.40;;;17.20;64.90;;;;;;10331158;28;20203;-66
2022/02/06 11:19:37;;;;;;;0.50;0.40;;;17.20;64.90;;;;;;10329782;28;20219;-66
2022/02/06 11:25:01;;;;;;;0.33;0.30;;;17.20;64.90;;;;;;10328822;28;20199;-67
2022/02/06 11:30:25;;;;;;;0.30;0.30;;;17.20;65.00;;;;;;10328095;28;20215;-66
2022/02/06 11:35:55;;;;;;;0.40;0.30;;;17.20;65.00;;;;;;10316317;28;20203;-66
2022/02/06 11:47:20;;;;;;;0.47;0.40;;;17.20;64.90;;;;;;10328258;28;20234;-67
2022/02/06 11:52:52;;;;;;;0.30;0.30;;;17.20;65.00;;;;;;10329583;28;20664;-67
2022/02/06 11:58:28;;;;;;;0.30;0.30;;;17.20;64.90;;;;;;10318991;28;20235;-66
2022/02/06 12:03:53;;;;;;;0.30;0.30;;;17.30;64.90;;;;;;10312964;28;20191;-67
2022/02/06 12:09:21;;;;;;;0.30;0.30;;;17.20;65.00;;;;;;10323202;28;20218;-66
2022/02/06 12:14:47;;;;;;;0.60;0.50;;;17.20;65.00;;;;;;10324656;28;20281;-67
2022/02/06 12:20:12;;;;;;;0.30;0.20;;;17.20;65.00;;;;;;10326773;28;20227;-66
2022/02/06 12:25:36;;;;;;;0.20;0.20;;;17.20;65.00;;;;;;10327506;28;20210;-66
2022/02/06 12:31:26;;;;;;;0.33;0.30;;;17.20;65.00;;;;;;10291841;28;20780;-66
2022/02/06 12:37:08;;;;;;;0.47;0.30;;;17.30;64.80;;;;;;10332727;28;20206;-68
2022/02/06 12:42:32;;;;;;;0.50;0.40;;;17.20;65.00;;;;;;10335007;28;20194;-67
2022/02/06 12:47:59;;;;;;;0.30;0.30;;;17.20;65.00;;;;;;10333564;28;20261;-66
2022/02/06 12:53:23;;;;;;;0.63;0.33;;;17.20;65.00;;;;;;10334543;28;20194;-66
2022/02/06 12:58:48;;;;;;;0.47;0.30;;;17.30;65.10;;;;;;10326886;28;20215;-67
2022/02/06 13:04:14;;;;;;;0.20;0.20;;;17.20;65.00;;;;;;10318184;28;20199;-66
2022/02/06 13:09:41;;;;;;;0.30;0.20;;;17.20;65.10;;;;;;10333707;28;20330;-66
2022/02/06 13:15:32;;;;;;;0.80;0.40;;;17.20;65.10;;;;;;10334209;28;20196;-66
2022/02/06 13:21:22;;;;;;;0.20;0.20;;;17.20;65.00;;;;;;10333565;28;20219;-66
2022/02/06 13:26:59;;;;;;;0.37;0.37;;;17.20;65.10;;;;;;10334187;28;20282;-66
2022/02/06 13:32:31;;;;;;;0.47;0.30;;;17.20;65.10;;;;;;10333761;28;20229;-66
2022/02/06 13:37:59;;;;;;;0.60;0.37;;;17.20;65.10;;;;;;10333074;28;20302;-66
2022/02/06 13:43:25;;;;;;;0.20;0.20;;;17.20;65.00;;;;;;10331733;28;20197;-66
2022/02/06 13:48:49;;;;;;;0.30;0.30;;;17.20;64.70;;;;;;10309284;28;20557;-67
2022/02/06 13:54:12;;;;;;;0.87;0.40;;;17.20;64.70;;;;;;10332447;28;20199;-67
2022/02/06 13:59:42;;;;;;;0.83;0.37;;;17.20;64.70;;;;;;10331657;28;20681;-67
2022/02/06 14:05:07;;;;;;;0.83;0.40;;;17.20;64.60;;;;;;10326513;28;20557;-67
2022/02/06 14:10:41;;;;;;;0.63;0.40;;;17.20;64.80;;;;;;10328725;28;20685;-66
2022/02/06 14:16:08;;;;;;;0.50;0.40;;;17.30;64.70;;;;;;10331131;28;20199;-67
2022/02/06 14:21:42;;;;;;;0.53;0.30;;;17.30;64.80;;;;;;10328656;28;20562;-66
2022/02/06 14:27:06;;;;;;;0.57;0.30;;;17.30;64.60;;;;;;10325201;28;20218;-66
2022/02/06 14:32:29;;;;;;;1.00;0.50;;;17.30;65.10;;;;;;10327784;28;21111;-65
2022/02/06 14:37:56;;;;;;;0.50;0.40;;;18.30;61.60;;;;;;10329365;28;20715;-66
2022/02/06 14:43:35;;;;;;;0.45;0.45;;;17.80;63.70;;;;;;10325949;28;20448;-64
2022/02/06 14:49:00;;;;;;;1.00;0.60;;;18.60;60.80;;;;;;10330779;28;20212;-65
2022/02/06 14:54:30;;;;;;;0.47;0.27;;;17.90;63.30;;;;;;10327193;28;20660;-65
2022/02/06 14:59:53;;;;;;;0.40;0.40;;;17.60;64.20;;;;;;10328266;28;20211;-66
2022/02/06 15:05:16;;;;;;;0.50;0.40;;;17.50;64.60;;;;;;10306308;28;20202;-65
2022/02/06 15:10:39;;;;;;;0.53;0.40;;;17.50;64.80;;;;;;10328126;28;20225;-64
2022/02/06 15:16:05;;;;;;;1.17;0.50;;;17.50;65.00;;;;;;10317021;28;20202;-66
2022/02/06 15:21:29;;;;;;;0.37;0.30;;;17.50;65.00;;;;;;10320340;28;20239;-67
2022/02/06 15:26:52;;;;;;;0.50;0.50;;;17.40;65.00;;;;;;10328927;28;20207;-66
2022/02/06 15:32:17;;;;;;;0.60;0.30;;;17.40;65.00;;;;;;10329025;28;20576;-66
2022/02/06 15:37:41;;;;;;;0.60;0.40;;;17.40;65.00;;;;;;10316188;28;20223;-66
2022/02/06 15:43:03;;;;;;;0.50;0.30;;;17.50;65.10;;;;;;10338317;28;20196;-66
2022/02/06 15:48:27;;;;;;;0.30;0.30;;;17.50;65.00;;;;;;10326770;28;20211;-66
2022/02/06 15:53:50;;;;;;;1.03;0.40;;;17.50;65.00;;;;;;10328786;28;20194;-65
2022/02/06 15:59:12;;;;;;;0.87;0.60;;;17.50;65.00;;;;;;10319961;28;20246;-66
2022/02/06 16:04:35;;;;;;;0.43;0.30;;;17.50;65.00;;;;;;10287632;28;20196;-65
2022/02/06 16:09:58;;;;;;;1.40;0.40;;;17.60;65.10;;;;;;10321368;28;20226;-64
2022/02/06 16:15:20;;;;;;;0.83;0.57;;;17.50;65.10;;;;;;10324183;28;20195;-65
2022/02/06 16:20:44;;;;;;;0.93;0.33;;;17.50;65.10;;;;;;10326815;28;20226;-65
2022/02/06 16:26:08;;;;;;;0.57;0.57;;;17.60;65.20;;;;;;10326224;28;20207;-65
2022/02/06 16:31:30;;;;;;;0.53;0.40;;;17.60;65.20;;;;;;10326806;28;20211;-66
2022/02/06 16:36:53;;;;;;;0.47;0.47;;;17.60;65.20;;;;;;10298332;28;20212;-66
2022/02/06 16:42:18;;;;;;;0.30;0.30;;;17.60;65.30;;;;;;10330000;28;20302;-66
2022/02/06 16:47:40;;;;;;;0.43;0.30;;;17.60;65.30;;;;;;10336937;28;20218;-65
2022/02/06 16:53:02;;;;;;;0.67;0.30;;;17.60;65.30;;;;;;10366585;28;20205;-65
2022/02/06 16:58:26;;;;;;;0.60;0.33;;;17.50;65.30;;;;;;10365698;23;20239;-68
2022/02/06 17:03:48;;;;;;;1.80;0.60;;;17.50;65.30;;;;;;10328440;28;20198;-69
2022/02/06 17:09:12;;;;;;;1.33;0.50;;;17.50;65.30;;;;;;10300431;28;20219;-69
2022/02/06 17:14:36;;;;;;;0.60;0.50;;;17.50;65.20;;;;;;10285965;28;20204;-69
2022/02/06 17:19:59;;;;;;;0.53;0.40;;;17.50;65.10;;;;;;10296474;28;20228;-69
2022/02/06 17:25:21;;;;;;;0.63;0.50;;;17.50;65.10;;;;;;10295182;28;20199;-68
2022/02/06 17:30:45;;;;;;;0.83;0.50;;;17.50;65.00;;;;;;10295122;28;20580;-69
2022/02/06 17:36:07;;;;;;;0.50;0.47;;;17.50;65.00;;;;;;10294836;28;20208;-70
2022/02/06 17:41:29;;;;;;;0.70;0.60;;;17.50;65.00;;;;;;10294886;28;20219;-69
2022/02/06 17:46:52;;;;;;;0.40;0.40;;;17.50;65.00;;;;;;10294592;28;20726;-70
2022/02/06 17:52:14;;;;;;;1.67;0.43;;;17.50;65.00;;;;;;10293448;28;20200;-69
2022/02/06 17:57:37;;;;;;;0.90;0.50;;;17.50;64.70;;;;;;10290211;28;20227;-69
2022/02/06 18:03:00;;;;;;;0.80;0.43;;;17.50;64.60;;;;;;10286162;28;20204;-70
2022/02/06 18:08:22;;;;;;;0.53;0.33;;;17.50;64.60;;;;;;10290946;28;20699;-65
2022/02/06 18:13:45;;;;;;;1.23;0.50;;;17.50;64.70;;;;;;10293420;28;20655;-68
2022/02/06 18:19:08;;;;;;;1.30;0.70;;;17.50;64.60;;;;;;10311884;28;20228;-67
2022/02/06 18:24:30;;;;;;;0.50;0.50;;;17.50;64.50;;;;;;10332911;28;20721;-66
2022/02/06 18:29:53;;;;;;;0.60;0.50;;;17.50;64.50;;;;;;10294538;28;20639;-68
2022/02/06 18:35:17;;;;;;;2.37;0.57;;;17.50;64.50;;;;;;10318218;28;20212;-67
2022/02/06 18:40:40;;;;;;;0.97;0.77;;;17.50;64.50;;;;;;10291550;28;20231;-67
2022/02/06 18:46:02;;;;;;;0.60;0.60;;;17.50;64.50;;;;;;10292318;28;20695;-66
2022/02/06 18:51:25;;;;;;;0.70;0.57;;;17.40;64.40;;;;;;10314970;28;20218;-69
2022/02/06 18:56:47;;;;;;;0.40;0.40;;;17.50;64.40;;;;;;10286010;28;20228;-70
2022/02/06 19:02:10;;;;;;;0.67;0.57;;;17.50;64.30;;;;;;10291646;28;20227;-69
2022/02/06 19:07:33;;;;;;;1.80;0.50;;;17.40;64.30;;;;;;10291422;28;20577;-69
2022/02/06 19:12:55;;;;;;;1.73;0.60;;;17.50;64.30;;;;;;10289893;28;20200;-70
2022/02/06 19:18:18;;;;;;;1.00;0.67;;;17.50;64.20;;;;;;10290450;28;20722;-69
2022/02/06 19:23:41;;;;;;;0.63;0.40;;;17.50;64.30;;;;;;10288219;28;20211;-69
2022/02/06 19:29:03;;;;;;;0.83;0.63;;;17.40;64.20;;;;;;10292391;28;20721;-69
2022/02/06 19:34:32;;;;;;;0.53;0.50;;;17.50;64.30;;;;;;10321570;28;20215;-68
2022/02/06 19:39:55;;;;;;;1.17;0.57;;;17.50;64.30;;;;;;10287312;28;20212;-69
2022/02/06 19:45:17;;;;;;;1.57;0.70;;;17.50;64.40;;;;;;10289064;28;20434;-70
2022/02/06 19:50:40;;;;;;;0.57;0.50;;;17.70;63.70;;;;;;10283853;28;20227;-71
2022/02/06 19:56:04;;;;;;;0.90;0.53;;;17.60;64.10;;;;;;10286654;28;20196;-69
2022/02/06 20:01:27;;;;;;;0.70;0.57;;;17.50;64.20;;;;;;10268032;28;20215;-69
2022/02/06 20:06:54;;;;;;;1.00;0.60;;;17.50;64.30;;;;;;10290352;28;20219;-70
2022/02/06 20:12:17;;;;;;;0.67;0.60;;;17.50;64.30;;;;;;10288426;28;20712;-69
2022/02/06 20:17:41;;;;;;;1.87;0.83;;;17.50;64.30;;;;;;10287159;28;20263;-69
2022/02/06 20:23:03;;;;;;;0.80;0.53;;;17.50;64.30;;;;;;10287149;28;20211;-69
2022/02/06 20:28:27;;;;;;;0.97;0.60;;;17.50;64.30;;;;;;10288126;28;20441;-68
2022/02/06 20:33:49;;;;;;;0.87;0.60;;;17.50;64.30;;;;;;10287079;28;20192;-70
2022/02/06 20:39:11;;;;;;;0.93;0.70;;;17.50;64.30;;;;;;10286634;28;21183;-69
2022/02/06 20:44:36;;;;;;;1.57;0.60;;;17.50;64.30;;;;;;10275525;28;20196;-70
2022/02/06 20:49:59;;;;;;;1.10;0.40;;;17.60;64.30;;;;;;10282051;28;20214;-70
2022/02/06 20:55:21;;;;;;;0.70;0.60;;;17.50;64.20;;;;;;10288371;28;20200;-71
2022/02/06 21:00:44;;;;;;;1.27;0.50;;;17.50;64.20;;;;;;10288596;28;20223;-69
2022/02/06 21:06:07;;;;;;;1.00;0.60;;;17.50;64.20;;;;;;10289954;28;20694;-70
2022/02/06 21:11:29;;;;;;;0.80;0.60;;;17.50;64.20;;;;;;10288992;28;20200;-69
2022/02/06 21:16:52;;;;;;;0.50;0.50;;;17.50;64.10;;;;;;10287806;28;20231;-70
2022/02/06 21:22:14;;;;;;;0.50;0.40;;;17.50;64.10;;;;;;10288777;28;20230;-69
2022/02/06 21:27:36;;;;;;;1.37;0.50;;;17.50;64.40;;;;;;10285635;28;20611;-69
2022/02/06 21:33:02;;;;;;;0.77;0.50;;;17.50;64.10;;;;;;10287910;28;20200;-70
2022/02/06 21:38:25;;;;;;;0.70;0.47;;;17.50;64.10;;;;;;10289932;28;20718;-70
2022/02/06 21:43:48;;;;;;;1.37;0.60;;;17.50;64.10;;;;;;10288977;28;20195;-69
2022/02/06 21:49:11;;;;;;;0.77;0.60;;;17.50;64.00;;;;;;10289290;28;20219;-69
2022/02/06 21:54:33;;;;;;;1.70;0.70;;;17.50;63.80;;;;;;10288858;28;20199;-69
2022/02/06 21:59:55;;;;;;;0.60;0.40;;;17.50;63.70;;;;;;10286564;28;20235;-69
2022/02/06 22:05:25;;;;;;;1.10;0.60;;;17.50;63.80;;;;;;10290369;28;20211;-69
2022/02/06 22:10:59;;;;;;;0.53;0.47;;;17.50;63.70;;;;;;10290081;28;20210;-70
2022/02/06 22:33:23;;;;;;;0.77;0.50;;;17.50;63.60;;;;;;10292320;28;20186;-70
2022/02/06 22:38:47;;;;;;;1.17;0.40;;;17.50;63.50;;;;;;10291591;28;20222;-69
2022/02/06 22:44:10;;;;;;;0.80;0.40;;;17.50;63.50;;;;;;10292756;28;20200;-69
2022/02/06 22:49:32;;;;;;;0.60;0.50;;;17.50;63.30;;;;;;10291108;28;20223;-70
2022/02/06 22:54:56;;;;;;;0.30;0.30;;;17.50;63.30;;;;;;10290312;28;20204;-70
2022/02/06 23:00:39;;;;;;;0.47;0.40;;;17.40;63.30;;;;;;10347546;23;20226;-68
2022/02/06 23:06:06;;;;;;;0.73;0.50;;;17.50;63.10;;;;;;10361936;28;20611;-69
2022/02/06 23:11:29;;;;;;;0.70;0.40;;;17.40;63.30;;;;;;10330845;28;20714;-69
2022/02/06 23:16:51;;;;;;;0.70;0.50;;;17.50;63.30;;;;;;10329461;28;20262;-69
2022/02/06 23:22:14;;;;;;;0.50;0.30;;;17.50;63.40;;;;;;10330490;28;20227;-68
2022/02/06 23:27:37;;;;;;;0.37;0.37;;;17.50;63.40;;;;;;10330761;28;20210;-68
2022/02/06 23:33:03;;;;;;;0.93;0.60;;;17.50;63.40;;;;;;10330103;28;20199;-69
2022/02/06 23:38:25;;;;;;;0.60;0.37;;;17.50;63.30;;;;;;10330293;28;20765;-70
2022/02/06 23:43:50;;;;;;;1.27;0.50;;;17.50;63.40;;;;;;10328180;28;20595;-69
2022/02/06 23:49:12;;;;;;;1.13;0.60;;;17.50;63.40;;;;;;10328798;28;20215;-68
2022/02/06 23:54:48;;;;;;;0.80;0.60;;;17.50;63.30;;;;;;10330186;28;20213;-69
